Terminal Aerodrome Forecast
Issued by NWS

Home | Current Version | Previous Version | Text Only | Print | Product List | Glossary On
Versions: 1 2 3 4 5 6 7 8 9 10 11 12 13 14 15
000
FTUS45 KTFX 231100
TAFHVR
TAF
KHVR 231125Z 2312/2412 25015KT P6SM VCSH BKN050
     FM231600 27025G35KT P6SM SCT090 BKN150
     FM240200 27022G31KT P6SM SCT150
     FM240700 25014KT P6SM SCT200=

USA.gov is the U.S. government's official web portal to all federal, state and local government web resources and services.